createdAt,value
2022-12-03T00:01:01.177Z,17.65
2022-12-03T00:03:28.087Z,16.95
2022-12-03T00:05:54.949Z,17.10
2022-12-03T00:08:21.424Z,18.65
2022-12-03T00:10:48.696Z,18.55
2022-12-03T00:13:15.275Z,18.20
2022-12-03T00:15:41.814Z,18.83
2022-12-03T00:18:08.460Z,17.02
2022-12-03T00:20:35.121Z,17.42
2022-12-03T00:23:01.610Z,18.15
2022-12-03T00:25:28.323Z,17.38
2022-12-03T00:27:54.877Z,18.67
2022-12-03T00:30:21.391Z,18.98
2022-12-03T00:32:48.056Z,17.25
2022-12-03T00:35:14.561Z,16.50
2022-12-03T00:37:41.052Z,17.85
2022-12-03T00:40:08.236Z,18.10
2022-12-03T00:42:34.721Z,19.77
2022-12-03T00:45:01.579Z,18.25
2022-12-03T00:47:28.402Z,19.20
2022-12-03T00:49:57.693Z,17.27
2022-12-03T00:52:24.190Z,19.02
2022-12-03T00:54:50.910Z,16.17
2022-12-03T00:57:17.619Z,18.83
2022-12-03T00:59:44.116Z,20.42
2022-12-03T01:02:10.728Z,17.75
2022-12-03T01:04:37.347Z,17.58
2022-12-03T01:07:03.896Z,20.88
2022-12-03T01:09:30.421Z,18.52
2022-12-03T01:11:57.083Z,18.83
2022-12-03T01:14:23.629Z,16.98
2022-12-03T01:16:50.154Z,17.40
2022-12-03T01:19:17.128Z,18.42
2022-12-03T01:21:49.505Z,19.63
2022-12-03T01:24:16.898Z,19.83
2022-12-03T01:26:43.559Z,17.75
2022-12-03T01:29:10.127Z,19.13
2022-12-03T01:31:37.070Z,18.50
2022-12-03T01:34:03.896Z,17.85
2022-12-03T01:36:30.381Z,17.20
2022-12-03T01:38:56.892Z,16.23
2022-12-03T01:41:24.970Z,18.58
2022-12-03T01:43:52.473Z,16.73
2022-12-03T01:46:22.288Z,18.98
2022-12-03T01:48:51.180Z,17.67
2022-12-03T01:51:18.056Z,18.23
2022-12-03T01:53:44.623Z,19.75
2022-12-03T01:56:14.273Z,17.55
2022-12-03T01:58:41.203Z,19.60
2022-12-03T02:01:13.470Z,19.42
2022-12-03T02:03:40.127Z,17.50
2022-12-03T02:06:13.388Z,21.05
2022-12-03T02:08:39.853Z,19.67
2022-12-03T02:11:18.611Z,19.08
2022-12-03T02:13:45.464Z,21.23
2022-12-03T02:16:12.104Z,20.98
2022-12-03T02:18:38.647Z,17.73
2022-12-03T02:21:13.906Z,18.65
2022-12-03T02:24:03.470Z,21.08
2022-12-03T02:26:29.989Z,16.45
2022-12-03T02:28:56.848Z,19.80
2022-12-03T02:31:23.876Z,22.77
2022-12-03T02:33:50.783Z,18.70
2022-12-03T02:36:17.326Z,20.73
2022-12-03T02:38:44.785Z,20.90
2022-12-03T02:41:13.001Z,19.05
2022-12-03T02:43:39.573Z,21.42
2022-12-03T02:46:07.843Z,24.00
2022-12-03T02:48:38.852Z,20.98
2022-12-03T02:51:09.580Z,19.65
2022-12-03T02:53:39.054Z,23.88
2022-12-03T02:56:08.435Z,20.63
2022-12-03T02:58:35.173Z,24.63
2022-12-03T03:01:02.569Z,21.25
2022-12-03T03:03:29.732Z,23.02
2022-12-03T03:05:56.888Z,22.40
2022-12-03T03:08:24.653Z,20.83
2022-12-03T03:10:51.385Z,23.33
2022-12-03T03:13:20.809Z,23.17
2022-12-03T03:15:47.717Z,24.75
2022-12-03T03:18:16.920Z,24.35
2022-12-03T03:20:44.133Z,23.55
2022-12-03T03:23:19.406Z,24.25
2022-12-03T03:25:49.906Z,23.85
2022-12-03T03:30:43.909Z,22.58
2022-12-03T03:33:11.370Z,21.73
2022-12-03T03:35:38.317Z,21.27
2022-12-03T03:38:05.876Z,23.23
2022-12-03T03:40:32.570Z,23.13
2022-12-03T03:43:00.248Z,22.65
2022-12-03T03:45:29.366Z,23.70
2022-12-03T03:47:57.767Z,23.13
2022-12-03T03:50:24.770Z,24.38
2022-12-03T03:52:51.549Z,24.60
2022-12-03T03:55:18.232Z,23.77
2022-12-03T03:57:45.021Z,23.35
2022-12-03T04:00:12.089Z,22.27
2022-12-03T04:02:38.679Z,21.80
2022-12-03T04:05:05.880Z,22.65
2022-12-03T04:07:32.468Z,22.08
2022-12-03T04:09:58.986Z,22.70
2022-12-03T04:12:37.390Z,22.63
2022-12-03T04:15:24.802Z,23.63
2022-12-03T04:18:06.066Z,20.45
2022-12-03T04:20:32.701Z,21.05
2022-12-03T04:22:59.192Z,26.27
2022-12-03T04:25:25.704Z,21.35
2022-12-03T04:27:52.181Z,20.58
2022-12-03T04:30:19.932Z,19.27
2022-12-03T04:32:46.516Z,23.00
2022-12-03T04:35:13.055Z,21.27
2022-12-03T04:37:39.680Z,20.48
2022-12-03T04:40:06.896Z,18.45
2022-12-03T04:42:33.346Z,20.70
2022-12-03T04:44:59.837Z,18.08
2022-12-03T04:47:26.330Z,20.05
2022-12-03T04:49:52.897Z,20.23
2022-12-03T04:52:20.549Z,25.27
2022-12-03T04:54:47.205Z,19.60
2022-12-03T04:57:13.710Z,20.98
2022-12-03T04:59:40.443Z,18.77
2022-12-03T05:02:07.437Z,21.45
2022-12-03T05:04:34.203Z,23.25
2022-12-03T05:07:01.941Z,20.77
2022-12-03T05:09:28.508Z,20.00
2022-12-03T05:11:55.041Z,18.88
2022-12-03T05:14:21.605Z,19.35
2022-12-03T05:16:48.185Z,18.40
2022-12-03T05:19:14.721Z,17.85
2022-12-03T05:21:41.208Z,20.15
2022-12-03T05:24:07.749Z,17.60
2022-12-03T05:26:34.303Z,17.00
2022-12-03T05:29:00.781Z,17.42
2022-12-03T05:31:27.349Z,19.63
2022-12-03T05:33:53.934Z,17.52
2022-12-03T05:36:20.453Z,18.63
2022-12-03T05:38:47.037Z,17.50
2022-12-03T05:41:14.625Z,17.50
2022-12-03T05:43:41.205Z,16.35
2022-12-03T05:46:07.911Z,17.67
2022-12-03T05:48:34.439Z,15.95
2022-12-03T05:51:00.902Z,16.58
2022-12-03T05:53:27.387Z,18.60
2022-12-03T05:55:53.858Z,18.38
2022-12-03T05:58:20.373Z,15.90
2022-12-03T06:00:46.869Z,16.90
2022-12-03T06:03:13.511Z,14.02
2022-12-03T06:05:40.161Z,14.23
2022-12-03T06:08:06.976Z,16.10
2022-12-03T06:10:33.599Z,15.18
2022-12-03T06:13:00.100Z,15.80
2022-12-03T06:15:26.914Z,15.00
2022-12-03T06:17:53.430Z,13.90
2022-12-03T06:20:20.872Z,13.70
2022-12-03T06:22:47.890Z,17.35
2022-12-03T06:25:15.556Z,18.38
2022-12-03T06:27:42.264Z,19.85
2022-12-03T06:30:11.033Z,17.52
2022-12-03T06:32:37.669Z,17.10
2022-12-03T06:35:04.615Z,18.00
2022-12-03T06:37:31.092Z,16.33
2022-12-03T06:39:57.590Z,18.33
2022-12-03T06:42:24.076Z,15.82
2022-12-03T06:44:51.779Z,15.00
2022-12-03T06:47:18.498Z,14.60
2022-12-03T06:49:45.058Z,17.60
2022-12-03T06:52:11.544Z,13.98
2022-12-03T06:54:38.796Z,15.90
2022-12-03T06:57:05.537Z,16.17
2022-12-03T06:59:32.055Z,18.98
2022-12-03T07:01:59.927Z,14.60
2022-12-03T07:04:26.987Z,13.52
2022-12-03T07:06:53.589Z,17.27
2022-12-03T07:09:20.320Z,13.82
2022-12-03T07:11:47.001Z,15.77
2022-12-03T07:14:13.523Z,12.95
2022-12-03T07:16:40.583Z,15.02
2022-12-03T07:19:07.349Z,13.68
2022-12-03T07:21:34.254Z,13.60
2022-12-03T07:24:01.166Z,13.43
2022-12-03T07:26:27.745Z,15.30
2022-12-03T07:28:54.222Z,12.70
2022-12-03T07:31:21.284Z,15.25
2022-12-03T07:33:47.808Z,14.38
2022-12-03T07:36:14.732Z,14.55
2022-12-03T07:38:42.359Z,13.27
2022-12-03T07:41:08.867Z,14.93
2022-12-03T07:43:35.828Z,13.68
2022-12-03T07:46:02.452Z,13.38
2022-12-03T07:48:28.977Z,14.35
2022-12-03T07:50:55.468Z,12.98
2022-12-03T07:53:22.535Z,14.02
2022-12-03T07:55:49.558Z,13.77
2022-12-03T07:58:16.146Z,11.60
2022-12-03T08:00:42.769Z,14.05
2022-12-03T08:03:09.319Z,15.40
2022-12-03T08:05:37.584Z,15.32
2022-12-03T08:08:04.217Z,13.88
2022-12-03T08:10:30.887Z,14.27
2022-12-03T08:12:59.294Z,13.40
2022-12-03T08:15:30.128Z,14.10
2022-12-03T08:18:01.066Z,14.52
2022-12-03T08:20:31.253Z,15.55
2022-12-03T08:22:57.754Z,13.88
2022-12-03T08:25:28.579Z,14.60
2022-12-03T08:28:00.728Z,13.73
2022-12-03T08:30:29.218Z,16.25
2022-12-03T08:32:58.109Z,15.93
2022-12-03T08:35:28.097Z,16.98
2022-12-03T08:37:59.935Z,19.02
2022-12-03T08:40:34.045Z,16.00
2022-12-03T08:43:00.765Z,20.27
2022-12-03T08:45:30.832Z,20.63
2022-12-03T08:48:12.104Z,17.95
2022-12-03T08:50:40.555Z,17.13
2022-12-03T08:53:33.203Z,16.67
2022-12-03T08:56:20.464Z,17.23
2022-12-03T08:58:48.941Z,17.67
2022-12-03T09:01:27.494Z,17.77
2022-12-03T09:03:58.004Z,17.80
2022-12-03T09:08:51.711Z,17.13
2022-12-03T09:11:18.361Z,15.13
2022-12-03T09:13:44.950Z,16.63
2022-12-03T09:16:11.505Z,17.45
2022-12-03T09:18:38.089Z,16.45
2022-12-03T09:21:04.793Z,16.98
2022-12-03T09:23:31.316Z,19.35
2022-12-03T09:25:57.885Z,19.25
2022-12-03T09:28:24.569Z,18.95
2022-12-03T09:30:51.057Z,19.75
2022-12-03T09:33:17.579Z,17.00
2022-12-03T09:35:44.061Z,18.13
2022-12-03T09:38:10.904Z,17.05
2022-12-03T09:40:37.929Z,18.67
2022-12-03T09:43:05.004Z,18.92
2022-12-03T09:45:32.255Z,19.38
2022-12-03T09:48:00.777Z,20.35
2022-12-03T09:50:27.648Z,20.38
2022-12-03T09:52:57.317Z,17.63
2022-12-03T09:55:26.433Z,18.83
2022-12-03T09:57:54.335Z,19.48
2022-12-03T10:00:25.959Z,20.50
2022-12-03T10:02:55.374Z,23.42
2022-12-03T10:05:25.127Z,19.23
2022-12-03T10:07:52.399Z,20.98
2022-12-03T10:10:23.757Z,19.45
2022-12-03T10:12:54.806Z,21.42
2022-12-03T10:15:23.453Z,18.98
2022-12-03T10:17:52.649Z,20.02
2022-12-03T10:20:20.549Z,17.92
2022-12-03T10:22:47.212Z,19.10
2022-12-03T10:25:19.676Z,18.55
2022-12-03T10:28:00.475Z,18.05
2022-12-03T10:30:28.159Z,17.10
2022-12-03T10:32:56.587Z,16.00
2022-12-03T10:35:44.779Z,16.77
2022-12-03T10:38:17.618Z,16.85
2022-12-03T10:40:44.143Z,16.42
2022-12-03T10:43:18.225Z,15.57
2022-12-03T10:46:05.073Z,14.80
2022-12-03T10:48:31.742Z,16.88
2022-12-03T10:51:01.318Z,18.17
2022-12-03T10:53:33.203Z,19.10
2022-12-03T10:56:01.836Z,16.20
2022-12-03T10:58:35.952Z,19.23
2022-12-03T11:01:05.767Z,19.73
2022-12-03T11:03:36.008Z,17.55
2022-12-03T11:06:03.328Z,17.30
2022-12-03T11:08:35.440Z,17.33
2022-12-03T11:11:07.851Z,18.58
2022-12-03T11:13:34.283Z,17.25
2022-12-03T11:16:02.350Z,18.42
2022-12-03T11:18:38.160Z,19.45
2022-12-03T11:21:13.194Z,17.33
2022-12-03T11:23:46.076Z,17.40
2022-12-03T11:26:28.535Z,18.60
2022-12-03T11:28:56.596Z,17.80
2022-12-03T11:31:36.823Z,16.90
2022-12-03T11:34:18.343Z,18.20
2022-12-03T11:37:09.668Z,17.70
2022-12-03T11:39:51.494Z,16.88
2022-12-03T11:42:21.306Z,16.45
2022-12-03T11:45:10.469Z,17.08
2022-12-03T11:47:37.954Z,16.42
2022-12-03T11:50:40.302Z,19.95
2022-12-03T11:53:22.427Z,16.80
2022-12-03T11:56:04.856Z,17.90
2022-12-03T11:58:32.221Z,19.15
2022-12-03T12:01:00.811Z,18.70
2022-12-03T12:03:34.989Z,20.33
2022-12-03T12:06:16.368Z,18.65
2022-12-03T12:08:54.396Z,17.85
2022-12-03T12:11:28.256Z,17.38
2022-12-03T12:14:00.205Z,16.05
2022-12-03T12:16:53.254Z,20.48
2022-12-03T12:19:42.256Z,18.02
2022-12-03T12:22:13.620Z,16.67
2022-12-03T12:24:40.117Z,19.27
2022-12-03T12:27:09.223Z,16.40
2022-12-03T12:29:38.531Z,19.63
2022-12-03T12:32:12.913Z,19.38
2022-12-03T12:34:41.520Z,19.55
2022-12-03T12:37:22.382Z,19.85
2022-12-03T12:39:51.031Z,21.30
2022-12-03T12:42:37.014Z,19.75
2022-12-03T12:45:14.686Z,20.15
2022-12-03T12:47:48.748Z,20.83
2022-12-03T12:50:17.042Z,18.30
2022-12-03T12:52:55.206Z,18.48
2022-12-03T12:55:22.773Z,19.05
2022-12-03T12:57:50.390Z,20.23
2022-12-03T13:00:23.138Z,19.35
2022-12-03T13:02:59.026Z,20.48
2022-12-03T13:05:25.914Z,20.67
2022-12-03T13:07:52.970Z,18.73
2022-12-03T13:10:38.458Z,21.40
2022-12-03T13:13:31.708Z,19.30
2022-12-03T13:16:18.564Z,17.50
2022-12-03T13:18:47.546Z,21.80
2022-12-03T13:21:38.705Z,18.90
2022-12-03T13:24:29.385Z,21.05
2022-12-03T13:26:56.816Z,21.10
2022-12-03T13:29:24.049Z,22.58
2022-12-03T13:31:59.703Z,23.58
2022-12-03T13:34:31.870Z,21.75
2022-12-03T13:36:59.983Z,26.33
2022-12-03T13:39:32.298Z,24.88
2022-12-03T13:42:08.496Z,27.75
2022-12-03T13:44:41.578Z,24.77
2022-12-03T13:47:18.917Z,25.50
2022-12-03T13:49:50.809Z,27.38
2022-12-03T13:52:20.938Z,26.98
2022-12-03T13:54:52.610Z,26.40
2022-12-03T13:57:19.469Z,27.48
2022-12-03T13:59:46.012Z,25.70
2022-12-03T14:02:12.547Z,24.92
2022-12-03T14:04:40.347Z,25.42
2022-12-03T14:07:07.228Z,30.98
2022-12-03T14:09:33.759Z,28.40
2022-12-03T14:12:00.260Z,28.70
2022-12-03T14:14:26.782Z,28.58
2022-12-03T14:16:59.529Z,34.80
2022-12-03T14:19:27.349Z,29.25
2022-12-03T14:21:57.185Z,26.63
2022-12-03T14:24:23.987Z,26.30
2022-12-03T14:26:50.537Z,29.88
2022-12-03T14:29:17.138Z,27.98
2022-12-03T14:31:44.086Z,30.50
2022-12-03T14:34:11.828Z,29.05
2022-12-03T14:36:38.386Z,29.15
2022-12-03T14:39:05.370Z,31.33
2022-12-03T14:41:48.226Z,32.03
2022-12-03T14:44:14.755Z,29.00
2022-12-03T14:46:41.404Z,32.30
2022-12-03T14:49:08.196Z,31.45
2022-12-03T14:51:34.701Z,34.28
2022-12-03T14:54:01.360Z,31.83
2022-12-03T14:56:27.857Z,31.45
2022-12-03T14:58:54.386Z,31.25
2022-12-03T15:01:21.288Z,30.50
2022-12-03T15:03:48.402Z,29.83
2022-12-03T15:06:14.962Z,31.27
2022-12-03T15:08:41.648Z,31.98
2022-12-03T15:11:08.433Z,31.10
2022-12-03T15:13:34.994Z,30.70
2022-12-03T15:16:01.812Z,32.38
2022-12-03T15:18:28.552Z,30.88
2022-12-03T15:20:55.071Z,30.60
2022-12-03T15:23:21.589Z,28.52
2022-12-03T15:25:48.157Z,30.63
2022-12-03T15:28:14.665Z,29.90
2022-12-03T15:30:41.203Z,33.30
2022-12-03T15:33:07.795Z,34.30
2022-12-03T15:35:34.600Z,33.90
2022-12-03T15:38:01.089Z,32.08
2022-12-03T15:40:27.601Z,37.63
2022-12-03T15:42:54.173Z,34.92
2022-12-03T15:45:21.425Z,34.92
2022-12-03T15:47:48.071Z,32.47
2022-12-03T15:50:17.947Z,34.70
2022-12-03T15:52:44.508Z,35.65
2022-12-03T15:55:11.635Z,32.95
2022-12-03T15:57:38.176Z,35.20
2022-12-03T16:00:05.957Z,39.78
2022-12-03T16:02:32.731Z,37.22
2022-12-03T16:05:04.571Z,35.60
2022-12-03T16:07:31.424Z,34.08
2022-12-03T16:09:58.098Z,48.55
2022-12-03T16:12:24.887Z,41.17
2022-12-03T16:14:51.535Z,41.42
2022-12-03T16:17:18.022Z,39.20
2022-12-03T16:19:44.641Z,34.55
2022-12-03T16:22:11.381Z,32.25
2022-12-03T16:24:41.309Z,32.92
2022-12-03T16:27:08.136Z,32.50
2022-12-03T16:29:34.869Z,31.73
2022-12-03T16:32:01.996Z,32.38
2022-12-03T16:34:28.534Z,34.92
2022-12-03T16:36:55.127Z,30.55
2022-12-03T16:39:21.640Z,30.05
2022-12-03T16:41:48.280Z,33.92
2022-12-03T16:44:14.799Z,33.97
2022-12-03T16:46:41.392Z,38.38
2022-12-03T16:49:08.246Z,31.05
2022-12-03T16:51:34.713Z,33.80
2022-12-03T16:54:01.182Z,36.95
2022-12-03T16:56:30.515Z,30.92
2022-12-03T16:58:57.128Z,35.92
2022-12-03T17:01:23.795Z,34.45
2022-12-03T17:03:51.096Z,37.80
2022-12-03T17:06:17.684Z,32.10
2022-12-03T17:08:49.427Z,35.42
2022-12-03T17:11:16.978Z,32.53
2022-12-03T17:13:43.827Z,33.47
2022-12-03T17:16:10.583Z,33.53
2022-12-03T17:18:37.302Z,34.63
2022-12-03T17:21:04.125Z,32.28
2022-12-03T17:23:31.812Z,33.25
2022-12-03T17:25:58.455Z,33.05
2022-12-03T17:28:25.008Z,33.92
2022-12-03T17:30:54.091Z,30.73
2022-12-03T17:33:20.725Z,35.00
2022-12-03T17:35:47.256Z,45.22
2022-12-03T17:38:13.760Z,40.17
2022-12-03T17:40:40.406Z,42.47
2022-12-03T17:43:28.236Z,34.28
2022-12-03T17:45:55.279Z,38.70
2022-12-03T17:48:21.840Z,41.38
2022-12-03T17:50:48.353Z,49.92
2022-12-03T17:53:14.861Z,40.75
2022-12-03T17:55:45.075Z,40.92
2022-12-03T18:00:38.313Z,36.05
2022-12-03T18:03:04.800Z,32.88
2022-12-03T18:05:31.742Z,46.85
2022-12-03T18:07:58.418Z,37.83
2022-12-03T18:10:25.017Z,38.05
2022-12-03T18:12:51.545Z,40.03
2022-12-03T18:15:18.068Z,34.40
2022-12-03T18:17:44.611Z,33.88
2022-12-03T18:20:11.153Z,36.80
2022-12-03T18:22:37.782Z,41.03
2022-12-03T18:25:05.014Z,34.75
2022-12-03T18:27:31.564Z,37.42
2022-12-03T18:30:00.637Z,34.53
2022-12-03T18:32:29.375Z,34.00
2022-12-03T18:34:57.393Z,33.15
2022-12-03T18:37:27.230Z,43.50
2022-12-03T18:39:54.387Z,37.05
2022-12-03T18:42:22.584Z,34.03
2022-12-03T18:44:50.331Z,35.10
2022-12-03T18:47:19.291Z,38.28
2022-12-03T18:49:45.859Z,38.80
2022-12-03T18:52:13.777Z,35.58
2022-12-03T18:54:40.338Z,35.20
2022-12-03T18:57:06.896Z,37.38
2022-12-03T18:59:33.450Z,34.25
2022-12-03T19:02:00.040Z,33.72
2022-12-03T19:04:26.626Z,36.53
2022-12-03T19:06:53.442Z,34.80
2022-12-03T19:09:20.035Z,36.92
2022-12-03T19:11:46.655Z,33.35
2022-12-03T19:14:13.215Z,34.90
2022-12-03T19:16:40.754Z,34.72
2022-12-03T19:19:10.347Z,33.65
2022-12-03T19:21:39.266Z,34.10
2022-12-03T19:26:53.149Z,33.10
2022-12-03T19:29:19.752Z,35.17
2022-12-03T19:31:49.294Z,34.33
2022-12-03T19:34:15.910Z,35.90
2022-12-03T19:36:43.063Z,35.08
2022-12-03T19:39:09.742Z,33.15
2022-12-03T19:41:36.293Z,35.90
2022-12-03T19:44:07.753Z,33.35
2022-12-03T19:46:37.185Z,31.92
2022-12-03T19:49:03.729Z,36.83
2022-12-03T19:51:35.073Z,34.75
2022-12-03T19:54:06.133Z,36.08
2022-12-03T19:58:59.277Z,36.90
2022-12-03T20:01:29.739Z,32.90
2022-12-03T20:06:26.498Z,39.95
2022-12-03T20:08:57.981Z,33.55
2022-12-03T20:11:26.775Z,35.00
2022-12-03T20:13:55.881Z,36.42
2022-12-03T20:16:23.213Z,39.78
2022-12-03T20:18:50.218Z,46.03
2022-12-03T20:21:18.026Z,46.17
2022-12-03T20:23:45.151Z,43.67
2022-12-03T20:26:15.963Z,39.38
2022-12-03T20:28:42.754Z,46.38
2022-12-03T20:31:15.213Z,43.25
2022-12-03T20:33:48.235Z,36.28
2022-12-03T20:36:16.563Z,39.03
2022-12-03T20:38:49.486Z,34.47
2022-12-03T20:41:18.112Z,40.47
2022-12-03T20:43:45.427Z,37.50
2022-12-03T20:46:18.013Z,34.80
2022-12-03T20:48:45.391Z,39.30
2022-12-03T20:51:14.645Z,37.78
2022-12-03T20:53:41.845Z,42.08
2022-12-03T20:56:08.993Z,36.42
2022-12-03T20:58:36.324Z,61.95
2022-12-03T21:01:16.128Z,35.20
2022-12-03T21:03:43.652Z,40.22
2022-12-03T21:06:10.722Z,38.97
2022-12-03T21:08:42.381Z,35.40
2022-12-03T21:11:10.434Z,37.40
2022-12-03T21:13:36.992Z,48.38
2022-12-03T21:16:08.105Z,38.03
2022-12-03T21:18:35.031Z,36.08
2022-12-03T21:21:02.439Z,33.25
2022-12-03T21:23:29.890Z,33.83
2022-12-03T21:26:08.260Z,32.35
2022-12-03T21:28:34.783Z,39.88
2022-12-03T21:31:06.042Z,30.40
2022-12-03T21:33:33.159Z,32.53
2022-12-03T21:36:00.238Z,34.10
2022-12-03T21:38:27.696Z,35.75
2022-12-03T21:40:54.683Z,33.20
2022-12-03T21:43:24.796Z,34.63
2022-12-03T21:45:52.084Z,32.30
2022-12-03T21:48:19.332Z,42.88
2022-12-03T21:50:46.599Z,33.92
2022-12-03T21:53:15.702Z,34.45
2022-12-03T21:55:42.406Z,32.33
2022-12-03T21:58:08.904Z,30.83
2022-12-03T22:00:36.237Z,37.00
2022-12-03T22:03:02.814Z,33.70
2022-12-03T22:05:29.395Z,34.20
2022-12-03T22:07:56.350Z,33.13
2022-12-03T22:10:22.951Z,32.95
2022-12-03T22:12:49.685Z,34.63
2022-12-03T22:15:19.201Z,56.28
2022-12-03T22:17:46.762Z,33.97
2022-12-03T22:20:13.780Z,40.38
2022-12-03T22:22:40.326Z,34.88
2022-12-03T22:25:07.212Z,31.73
2022-12-03T22:27:33.816Z,33.65
2022-12-03T22:30:00.297Z,34.30
2022-12-03T22:32:26.936Z,33.65
2022-12-03T22:34:53.438Z,32.45
2022-12-03T22:37:20.098Z,30.98
2022-12-03T22:39:46.619Z,33.15
2022-12-03T22:42:15.351Z,35.22
2022-12-03T22:44:41.851Z,33.88
2022-12-03T22:47:08.508Z,34.42
2022-12-03T22:49:35.149Z,32.20
2022-12-03T22:52:02.835Z,34.70
2022-12-03T22:54:32.332Z,32.10
2022-12-03T22:56:58.793Z,31.02
2022-12-03T22:59:25.526Z,34.97
2022-12-03T23:01:52.037Z,32.38
2022-12-03T23:04:18.788Z,36.42
2022-12-03T23:06:45.501Z,33.83
2022-12-03T23:09:12.327Z,37.83
2022-12-03T23:11:38.948Z,34.20
2022-12-03T23:14:05.492Z,33.05
2022-12-03T23:16:32.750Z,31.52
2022-12-03T23:19:00.185Z,28.85
2022-12-03T23:21:30.208Z,31.92
2022-12-03T23:26:27.195Z,29.58
2022-12-03T23:28:53.811Z,26.38
2022-12-03T23:31:29.004Z,29.50
2022-12-03T23:33:56.659Z,28.10
2022-12-03T23:36:25.439Z,25.92
2022-12-03T23:38:51.987Z,28.98
2022-12-03T23:41:20.373Z,30.27
2022-12-03T23:43:47.227Z,26.10
2022-12-03T23:46:16.191Z,29.00
2022-12-03T23:48:43.620Z,28.08
2022-12-03T23:51:12.589Z,27.05
2022-12-03T23:53:39.990Z,30.15
2022-12-03T23:56:14.626Z,28.02
2022-12-03T23:58:41.191Z,31.92
